createdAt,value
2022-11-13T00:01:54.811Z,4.62
2022-11-13T00:04:42.682Z,4.62
2022-11-13T00:07:29.568Z,4.58
2022-11-13T00:10:17.020Z,4.68
2022-11-13T00:13:03.302Z,4.73
2022-11-13T00:15:57.933Z,4.80
2022-11-13T00:18:44.727Z,4.90
2022-11-13T00:21:33.179Z,4.88
2022-11-13T00:24:19.670Z,4.92
2022-11-13T00:27:06.058Z,4.84
2022-11-13T00:29:52.595Z,4.67
2022-11-13T00:32:40.161Z,4.78
2022-11-13T00:35:26.465Z,4.63
2022-11-13T00:38:14.336Z,4.47
2022-11-13T00:41:01.481Z,4.66
2022-11-13T00:43:48.197Z,4.69
2022-11-13T00:46:34.810Z,4.70
2022-11-13T00:49:21.075Z,4.64
2022-11-13T00:52:07.637Z,4.73
2022-11-13T00:54:55.648Z,4.69
2022-11-13T00:57:42.072Z,4.63
2022-11-13T01:00:28.505Z,4.55
2022-11-13T01:03:16.382Z,4.43
2022-11-13T01:06:09.950Z,4.51
2022-11-13T01:08:57.072Z,4.56
2022-11-13T01:11:44.935Z,4.50
2022-11-13T01:14:31.173Z,4.57
2022-11-13T01:17:17.748Z,4.59
2022-11-13T01:20:05.372Z,4.43
2022-11-13T01:22:52.175Z,4.40
2022-11-13T01:25:38.761Z,4.39
2022-11-13T01:28:26.664Z,4.41
2022-11-13T01:31:16.718Z,4.45
2022-11-13T01:34:02.962Z,4.34
2022-11-13T01:36:49.715Z,4.25
2022-11-13T01:39:36.177Z,4.20
2022-11-13T01:42:22.416Z,4.26
2022-11-13T01:45:42.415Z,5.35
2022-11-13T01:48:35.654Z,6.01
2022-11-13T01:51:27.242Z,6.24
2022-11-13T01:54:17.859Z,6.29
2022-11-13T01:57:05.573Z,6.46
2022-11-13T01:59:56.564Z,6.46
2022-11-13T02:02:42.904Z,6.46
2022-11-13T02:05:31.153Z,6.42
2022-11-13T02:08:17.712Z,6.62
2022-11-13T02:11:04.602Z,6.54
2022-11-13T02:13:51.280Z,6.46
2022-11-13T02:16:38.957Z,6.45
2022-11-13T02:19:29.145Z,6.60
2022-11-13T02:22:27.063Z,6.60
2022-11-13T02:25:15.737Z,6.55
2022-11-13T02:28:02.740Z,6.48
2022-11-13T02:30:49.406Z,6.41
2022-11-13T02:33:36.429Z,6.37
2022-11-13T02:36:26.447Z,6.43
2022-11-13T02:39:14.794Z,6.55
2022-11-13T02:42:02.568Z,5.94
2022-11-13T02:44:48.729Z,6.16
2022-11-13T02:47:35.825Z,6.08
2022-11-13T02:50:22.499Z,6.23
2022-11-13T02:53:08.897Z,6.39
2022-11-13T02:55:55.419Z,6.13
2022-11-13T02:58:43.591Z,6.26
2022-11-13T03:01:30.356Z,6.29
2022-11-13T03:04:17.158Z,6.32
2022-11-13T03:07:04.096Z,5.55
2022-11-13T03:09:50.916Z,5.81
2022-11-13T03:12:37.712Z,6.12
2022-11-13T03:15:25.753Z,5.99
2022-11-13T03:18:15.049Z,6.16
2022-11-13T03:21:08.222Z,5.67
2022-11-13T03:23:55.498Z,5.88
2022-11-13T03:26:42.041Z,6.02
2022-11-13T03:29:28.263Z,6.00
2022-11-13T03:32:16.430Z,6.13
2022-11-13T03:35:02.816Z,6.09
2022-11-13T03:37:49.439Z,6.03
2022-11-13T03:40:35.847Z,5.64
2022-11-13T03:43:22.235Z,5.56
2022-11-13T03:46:08.860Z,5.82
2022-11-13T03:48:56.932Z,5.70
2022-11-13T03:51:43.315Z,5.82
2022-11-13T03:54:29.636Z,5.85
2022-11-13T03:57:16.533Z,5.89
2022-11-13T04:00:05.669Z,6.13
2022-11-13T04:02:52.122Z,5.89
2022-11-13T04:05:40.703Z,5.77
2022-11-13T04:08:27.381Z,5.87
2022-11-13T04:11:14.651Z,6.11
2022-11-13T04:14:01.237Z,6.27
2022-11-13T04:16:47.694Z,6.43
2022-11-13T04:19:34.420Z,6.30
2022-11-13T04:22:22.229Z,6.13
2022-11-13T04:25:09.823Z,6.22
2022-11-13T04:27:56.766Z,6.22
2022-11-13T04:30:43.380Z,5.87
2022-11-13T04:33:29.948Z,5.95
2022-11-13T04:36:16.248Z,6.20
2022-11-13T04:39:04.715Z,6.14
2022-11-13T04:42:08.958Z,5.92
2022-11-13T04:44:55.455Z,6.18
2022-11-13T04:47:42.156Z,5.89
2022-11-13T04:50:28.744Z,5.91
2022-11-13T04:53:15.180Z,5.77
2022-11-13T04:56:03.023Z,5.80
2022-11-13T04:58:49.577Z,5.76
2022-11-13T05:01:37.084Z,5.82
2022-11-13T05:04:23.595Z,5.91
2022-11-13T05:07:09.730Z,5.72
2022-11-13T05:09:56.095Z,5.46
2022-11-13T05:12:44.117Z,5.07
2022-11-13T05:15:30.509Z,5.60
2022-11-13T05:18:17.085Z,5.46
2022-11-13T05:21:03.840Z,5.15
2022-11-13T05:23:50.212Z,5.34
2022-11-13T05:26:38.555Z,5.16
2022-11-13T05:29:26.475Z,5.39
2022-11-13T05:32:13.251Z,5.33
2022-11-13T05:34:59.384Z,5.57
2022-11-13T05:37:45.919Z,5.68
2022-11-13T05:40:32.500Z,5.62
2022-11-13T05:43:18.756Z,5.39
2022-11-13T05:46:08.543Z,5.56
2022-11-13T05:48:59.603Z,5.22
2022-11-13T05:51:45.955Z,5.25
2022-11-13T05:54:32.353Z,5.34
2022-11-13T05:57:20.136Z,5.24
2022-11-13T06:00:08.306Z,5.30
2022-11-13T06:02:56.256Z,5.44
2022-11-13T06:05:42.573Z,5.36
2022-11-13T06:08:29.281Z,5.41
2022-11-13T06:11:17.075Z,5.13
2022-11-13T06:14:03.447Z,5.22
2022-11-13T06:16:50.176Z,5.12
2022-11-13T06:19:37.804Z,5.31
2022-11-13T06:22:24.076Z,5.40
2022-11-13T06:25:10.855Z,5.51
2022-11-13T06:27:57.253Z,5.14
2022-11-13T06:30:43.744Z,4.95
2022-11-13T06:33:30.051Z,4.80
2022-11-13T06:36:21.554Z,4.89
2022-11-13T06:39:09.457Z,6.24
2022-11-13T06:41:56.237Z,5.17
2022-11-13T06:44:42.723Z,5.52
2022-11-13T06:47:29.751Z,5.10
2022-11-13T06:50:16.077Z,4.67
2022-11-13T06:53:03.971Z,5.02
2022-11-13T06:55:51.799Z,5.14
2022-11-13T06:58:38.789Z,5.07
2022-11-13T07:01:26.904Z,4.99
2022-11-13T07:04:13.839Z,4.59
2022-11-13T07:07:03.115Z,4.65
2022-11-13T07:09:50.887Z,5.06
2022-11-13T07:12:37.763Z,5.32
2022-11-13T07:15:23.948Z,4.82
2022-11-13T07:18:10.493Z,5.14
2022-11-13T07:20:57.285Z,4.97
2022-11-13T07:23:44.507Z,4.95
2022-11-13T07:26:32.527Z,4.69
2022-11-13T07:29:18.765Z,4.87
2022-11-13T07:32:05.965Z,5.42
2022-11-13T07:34:52.554Z,5.43
2022-11-13T07:37:39.089Z,5.65
2022-11-13T07:40:25.760Z,5.64
2022-11-13T07:43:13.757Z,5.44
2022-11-13T07:46:00.234Z,5.46
2022-11-13T07:48:46.884Z,5.26
2022-11-13T07:51:33.385Z,5.30
2022-11-13T07:54:19.656Z,4.64
2022-11-13T07:57:06.177Z,4.93
2022-11-13T07:59:56.190Z,5.06
2022-11-13T08:02:44.957Z,4.98
2022-11-13T08:05:31.820Z,5.28
2022-11-13T08:08:18.234Z,5.35
2022-11-13T08:11:06.871Z,5.52
2022-11-13T08:13:53.287Z,5.54
2022-11-13T08:16:40.959Z,5.25
2022-11-13T08:19:27.187Z,4.97
2022-11-13T08:22:13.844Z,4.82
2022-11-13T08:25:00.519Z,5.38
2022-11-13T08:27:47.247Z,5.49
2022-11-13T08:30:33.798Z,5.37
2022-11-13T08:33:21.784Z,5.13
2022-11-13T08:36:09.811Z,5.69
2022-11-13T08:38:56.251Z,5.68
2022-11-13T08:41:42.682Z,5.91
2022-11-13T08:44:29.184Z,6.19
2022-11-13T08:47:16.119Z,6.45
2022-11-13T08:50:04.060Z,6.02
2022-11-13T08:52:55.242Z,6.13
2022-11-13T08:55:41.946Z,6.03
2022-11-13T08:58:28.890Z,6.41
2022-11-13T09:01:16.836Z,6.37
2022-11-13T09:04:03.677Z,6.63
2022-11-13T09:06:51.230Z,6.63
2022-11-13T09:09:37.801Z,6.69
2022-11-13T09:12:24.131Z,6.58
2022-11-13T09:15:12.339Z,6.84
2022-11-13T09:18:07.376Z,6.86
2022-11-13T09:20:53.892Z,7.12
2022-11-13T09:23:41.891Z,6.97
2022-11-13T09:26:28.228Z,7.78
2022-11-13T09:29:14.870Z,7.87
2022-11-13T09:32:01.528Z,7.43
2022-11-13T09:34:48.232Z,7.90
2022-11-13T09:37:35.243Z,8.07
2022-11-13T09:40:30.432Z,7.91
2022-11-13T09:43:29.809Z,7.93
2022-11-13T09:46:22.869Z,8.21
2022-11-13T09:49:16.520Z,7.92
2022-11-13T09:52:11.487Z,7.33
2022-11-13T09:54:57.990Z,7.44
2022-11-13T09:57:52.629Z,6.92
2022-11-13T10:00:39.453Z,6.89
2022-11-13T10:07:05.228Z,6.34
2022-11-13T10:10:06.668Z,6.66
2022-11-13T10:12:57.360Z,6.94
2022-11-13T10:15:47.357Z,7.18
2022-11-13T10:18:38.869Z,6.53
2022-11-13T10:21:33.543Z,6.94
2022-11-13T10:24:25.795Z,7.44
2022-11-13T10:27:14.339Z,6.60
2022-11-13T10:30:03.028Z,6.89
2022-11-13T10:32:50.027Z,7.34
2022-11-13T10:35:57.405Z,8.08
2022-11-13T10:38:46.253Z,7.96
2022-11-13T10:41:33.406Z,7.76
2022-11-13T10:44:22.982Z,7.82
2022-11-13T10:47:26.480Z,7.38
2022-11-13T10:50:22.653Z,7.70
2022-11-13T10:53:17.306Z,7.19
2022-11-13T10:56:15.591Z,6.91
2022-11-13T10:59:04.751Z,7.60
2022-11-13T11:01:51.744Z,7.97
2022-11-13T11:04:43.113Z,7.68
2022-11-13T11:07:30.199Z,7.93
2022-11-13T11:10:28.494Z,7.57
2022-11-13T11:13:23.891Z,7.56
2022-11-13T11:16:15.272Z,7.17
2022-11-13T11:19:05.582Z,6.83
2022-11-13T11:22:10.754Z,6.91
2022-11-13T11:25:02.771Z,6.64
2022-11-13T11:27:57.441Z,6.60
2022-11-13T11:30:50.932Z,6.56
2022-11-13T11:33:44.304Z,6.89
2022-11-13T11:36:36.104Z,7.05
2022-11-13T11:39:32.036Z,6.74
2022-11-13T11:42:26.763Z,6.64
2022-11-13T11:45:17.434Z,6.64
2022-11-13T11:48:07.221Z,6.27
2022-11-13T11:51:02.437Z,6.38
2022-11-13T11:53:59.437Z,6.66
2022-11-13T11:56:52.299Z,6.89
2022-11-13T12:03:34.569Z,7.75
2022-11-13T12:06:31.295Z,7.77
2022-11-13T12:09:27.967Z,7.86
2022-11-13T12:12:26.045Z,7.84
2022-11-13T12:15:21.551Z,8.11
2022-11-13T12:18:15.666Z,8.00
2022-11-13T12:21:12.608Z,8.12
2022-11-13T12:24:18.958Z,8.51
2022-11-13T12:27:18.940Z,8.89
2022-11-13T12:30:15.173Z,9.08
2022-11-13T12:33:17.484Z,8.97
2022-11-13T12:36:05.130Z,9.08
2022-11-13T12:39:01.143Z,9.25
2022-11-13T12:41:54.749Z,9.13
2022-11-13T12:44:50.676Z,9.33
2022-11-13T12:47:39.110Z,9.68
2022-11-13T12:50:32.063Z,10.00
2022-11-13T12:53:27.327Z,9.91
2022-11-13T12:56:19.512Z,10.06
2022-11-13T12:59:30.487Z,9.80
2022-11-13T13:02:49.268Z,10.30
2022-11-13T13:05:58.463Z,10.55
2022-11-13T13:09:01.931Z,10.30
2022-11-13T13:11:59.528Z,10.56
2022-11-13T13:15:08.593Z,10.83
2022-11-13T13:18:06.186Z,10.77
2022-11-13T13:21:03.050Z,10.91
2022-11-13T13:23:51.407Z,11.03
2022-11-13T13:26:46.301Z,11.28
2022-11-13T13:29:34.991Z,11.33
2022-11-13T13:32:27.477Z,11.45
2022-11-13T13:35:19.163Z,11.33
2022-11-13T13:38:16.353Z,11.40
2022-11-13T13:41:18.113Z,11.52
2022-11-13T13:44:20.883Z,11.67
2022-11-13T13:47:16.017Z,11.61
2022-11-13T13:50:05.604Z,11.85
2022-11-13T13:52:55.996Z,11.84
2022-11-13T13:55:49.268Z,11.74
2022-11-13T13:58:38.013Z,11.61
2022-11-13T14:01:29.227Z,11.63
2022-11-13T14:04:19.704Z,11.47
2022-11-13T14:07:20.786Z,11.47
2022-11-13T14:10:15.831Z,11.59
2022-11-13T14:13:02.996Z,11.60
2022-11-13T14:15:49.499Z,11.79
2022-11-13T14:18:36.751Z,11.73
2022-11-13T14:21:25.000Z,11.70
2022-11-13T14:24:17.507Z,11.59
2022-11-13T14:27:09.514Z,11.44
2022-11-13T14:29:59.664Z,11.35
2022-11-13T14:32:47.398Z,11.20
2022-11-13T14:35:33.985Z,11.20
2022-11-13T14:38:23.333Z,11.17
2022-11-13T14:41:21.508Z,10.91
2022-11-13T14:44:11.745Z,11.11
2022-11-13T14:47:02.684Z,11.44
2022-11-13T14:49:49.219Z,11.33
2022-11-13T14:52:35.738Z,10.92
2022-11-13T14:55:23.794Z,10.60
2022-11-13T14:58:14.566Z,10.12
2022-11-13T15:01:15.685Z,9.87
2022-11-13T15:04:02.503Z,9.56
2022-11-13T15:06:50.848Z,9.30
2022-11-13T15:09:37.108Z,9.09
2022-11-13T15:12:23.547Z,8.92
2022-11-13T15:15:15.191Z,8.87
2022-11-13T15:18:03.575Z,8.78
2022-11-13T15:20:50.118Z,8.64
2022-11-13T15:23:36.889Z,8.53
2022-11-13T15:26:24.118Z,8.39
2022-11-13T15:29:11.007Z,8.19
2022-11-13T15:31:58.558Z,8.03
2022-11-13T15:34:46.632Z,7.83
2022-11-13T15:37:33.504Z,7.68
2022-11-13T15:40:20.105Z,7.56
2022-11-13T15:43:07.198Z,7.38
2022-11-13T15:45:53.425Z,7.35
2022-11-13T15:48:40.103Z,7.24
2022-11-13T15:51:33.188Z,7.09
2022-11-13T15:54:26.263Z,6.94
2022-11-13T15:57:19.174Z,6.99
2022-11-13T16:00:13.627Z,6.84
2022-11-13T16:03:00.052Z,6.73
2022-11-13T16:05:46.714Z,6.59
2022-11-13T16:08:34.645Z,6.64
2022-11-13T16:11:21.964Z,6.60
2022-11-13T16:14:08.976Z,6.58
2022-11-13T16:16:55.781Z,6.60
2022-11-13T16:19:43.411Z,6.53
2022-11-13T16:22:30.231Z,6.45
2022-11-13T16:25:21.162Z,6.32
2022-11-13T16:28:16.385Z,6.26
2022-11-13T16:31:03.647Z,6.20
2022-11-13T16:33:51.112Z,6.15
2022-11-13T16:36:37.736Z,6.09
2022-11-13T16:39:24.512Z,5.99
2022-11-13T16:42:12.873Z,5.79
2022-11-13T16:44:59.241Z,5.73
2022-11-13T16:47:46.545Z,5.76
2022-11-13T16:50:36.913Z,5.72
2022-11-13T16:53:23.357Z,5.69
2022-11-13T16:56:14.834Z,5.70
2022-11-13T16:59:02.626Z,5.48
2022-11-13T17:01:49.090Z,5.39
2022-11-13T17:04:35.583Z,5.33
2022-11-13T17:07:22.866Z,5.31
2022-11-13T17:13:19.275Z,5.22
2022-11-13T17:16:07.478Z,5.22
2022-11-13T17:18:54.793Z,5.30
2022-11-13T17:21:44.237Z,5.30
2022-11-13T17:24:31.121Z,5.31
2022-11-13T17:27:18.501Z,5.45
2022-11-13T17:30:05.615Z,5.38
2022-11-13T17:32:58.862Z,5.33
2022-11-13T17:35:46.440Z,5.28
2022-11-13T17:38:33.524Z,5.13
2022-11-13T17:41:19.708Z,5.00
2022-11-13T17:44:06.327Z,4.94
2022-11-13T17:46:53.838Z,4.99
2022-11-13T17:49:41.561Z,4.94
2022-11-13T17:52:28.683Z,4.84
2022-11-13T17:55:15.407Z,4.76
2022-11-13T17:58:02.849Z,4.77
2022-11-13T18:00:49.631Z,4.85
2022-11-13T18:03:36.427Z,4.81
2022-11-13T18:06:25.399Z,5.08
2022-11-13T18:09:12.458Z,5.27
2022-11-13T18:11:58.820Z,5.45
2022-11-13T18:14:52.258Z,5.56
2022-11-13T18:17:39.040Z,5.41
2022-11-13T18:20:25.751Z,5.26
2022-11-13T18:23:13.591Z,5.21
2022-11-13T18:26:07.691Z,5.09
2022-11-13T18:28:53.929Z,5.07
2022-11-13T18:31:40.627Z,5.06
2022-11-13T18:34:28.484Z,4.93
2022-11-13T18:37:15.005Z,4.80
2022-11-13T18:40:03.226Z,4.75
2022-11-13T18:42:50.992Z,4.84
2022-11-13T18:45:37.444Z,4.80
2022-11-13T18:48:23.759Z,4.60
2022-11-13T18:51:13.373Z,4.63
2022-11-13T18:53:59.884Z,5.15
2022-11-13T18:56:47.699Z,4.99
2022-11-13T18:59:34.441Z,5.00
2022-11-13T19:02:21.252Z,5.25
2022-11-13T19:05:07.826Z,5.26
2022-11-13T19:07:54.061Z,5.31
2022-11-13T19:10:42.031Z,4.67
2022-11-13T19:13:29.789Z,4.79
2022-11-13T19:16:18.958Z,4.83
2022-11-13T19:19:07.962Z,4.86
2022-11-13T19:21:54.341Z,4.98
2022-11-13T19:24:40.742Z,4.80
2022-11-13T19:27:27.072Z,4.84
2022-11-13T19:30:15.317Z,4.64
2022-11-13T19:33:01.938Z,4.80
2022-11-13T19:35:48.287Z,4.80
2022-11-13T19:38:34.786Z,4.54
2022-11-13T19:41:21.768Z,4.60
2022-11-13T19:44:10.352Z,4.52
2022-11-13T19:46:58.205Z,4.34
2022-11-13T19:49:44.900Z,4.59
2022-11-13T19:52:31.388Z,4.34
2022-11-13T19:55:17.882Z,4.37
2022-11-13T19:58:04.317Z,4.51
2022-11-13T20:00:51.097Z,4.53
2022-11-13T20:03:39.057Z,4.80
2022-11-13T20:06:26.967Z,4.86
2022-11-13T20:09:13.265Z,4.77
2022-11-13T20:12:00.073Z,4.49
2022-11-13T20:14:46.708Z,4.46
2022-11-13T20:17:33.182Z,4.25
2022-11-13T20:20:20.883Z,4.56
2022-11-13T20:23:07.310Z,4.57
2022-11-13T20:25:55.115Z,4.39
2022-11-13T20:28:41.500Z,4.46
2022-11-13T20:31:28.567Z,4.94
2022-11-13T20:34:15.648Z,4.83
2022-11-13T20:37:03.664Z,5.26
2022-11-13T20:39:50.039Z,5.12
2022-11-13T20:42:36.772Z,5.26
2022-11-13T20:45:22.904Z,5.58
2022-11-13T20:48:09.592Z,5.52
2022-11-13T20:50:56.223Z,5.72
2022-11-13T20:53:44.433Z,5.76
2022-11-13T20:56:30.975Z,5.63
2022-11-13T20:59:17.493Z,5.68
2022-11-13T21:02:04.171Z,5.48
2022-11-13T21:04:50.621Z,5.47
2022-11-13T21:07:37.319Z,5.29
2022-11-13T21:10:25.194Z,5.38
2022-11-13T21:13:11.304Z,5.37
2022-11-13T21:15:57.793Z,5.05
2022-11-13T21:18:44.378Z,5.22
2022-11-13T21:21:31.743Z,5.32
2022-11-13T21:24:18.507Z,4.78
2022-11-13T21:27:06.473Z,4.71
2022-11-13T21:29:53.830Z,4.83
2022-11-13T21:32:40.916Z,4.86
2022-11-13T21:35:28.021Z,4.95
2022-11-13T21:38:14.482Z,5.10
2022-11-13T21:41:15.532Z,5.33
2022-11-13T21:44:05.636Z,5.32
2022-11-13T21:46:52.191Z,5.37
2022-11-13T21:49:38.698Z,5.60
2022-11-13T21:52:25.098Z,5.34
2022-11-13T21:55:11.382Z,5.12
2022-11-13T21:57:57.920Z,5.07
2022-11-13T22:00:45.925Z,4.99
2022-11-13T22:03:33.040Z,5.02
2022-11-13T22:06:21.989Z,5.02
2022-11-13T22:09:15.169Z,5.02
2022-11-13T22:12:01.775Z,4.78
2022-11-13T22:14:48.092Z,4.92
2022-11-13T22:17:35.889Z,5.00
2022-11-13T22:20:22.473Z,5.11
2022-11-13T22:23:09.321Z,5.13
2022-11-13T22:26:00.608Z,4.99
2022-11-13T22:28:51.548Z,5.00
2022-11-13T22:31:38.256Z,4.99
2022-11-13T22:34:25.883Z,4.97
2022-11-13T22:37:12.447Z,5.00
2022-11-13T22:39:58.900Z,5.00
2022-11-13T22:42:45.257Z,5.02
2022-11-13T22:45:33.944Z,4.95
2022-11-13T22:48:20.268Z,5.05
2022-11-13T22:51:12.569Z,5.08
2022-11-13T22:54:01.105Z,5.06
2022-11-13T22:56:47.789Z,5.08
2022-11-13T22:59:34.516Z,5.14
2022-11-13T23:02:20.762Z,5.03
2022-11-13T23:05:10.087Z,4.92
2022-11-13T23:07:58.331Z,4.89
2022-11-13T23:10:44.651Z,4.86
2022-11-13T23:13:30.855Z,4.90
2022-11-13T23:16:18.283Z,4.84
2022-11-13T23:19:05.475Z,4.84
2022-11-13T23:21:52.049Z,4.72
2022-11-13T23:24:40.110Z,4.65
2022-11-13T23:27:26.716Z,4.71
2022-11-13T23:30:13.535Z,4.69
2022-11-13T23:32:59.867Z,4.59
2022-11-13T23:35:46.670Z,4.51
2022-11-13T23:38:32.928Z,4.54
2022-11-13T23:41:20.823Z,4.41
2022-11-13T23:44:09.099Z,4.40
2022-11-13T23:46:56.541Z,4.41
2022-11-13T23:49:43.172Z,4.58
2022-11-13T23:52:29.430Z,4.50
2022-11-13T23:55:16.994Z,4.42
2022-11-13T23:58:06.271Z,4.35
